sensor_id;sensor_type;location;lat;lon;timestamp;pressure;altitude;pressure_sealevel;temperature;humidity
47080;BME280;33067;49.296;14.470;2023-06-26T00:00:28;97081.23;;;21.29;41.45
47080;BME280;33067;49.296;14.470;2023-06-26T00:02:54;97077.07;;;21.22;41.16
47080;BME280;33067;49.296;14.470;2023-06-26T00:05:19;97075.50;;;21.34;41.01
47080;BME280;33067;49.296;14.470;2023-06-26T00:07:44;97074.54;;;21.54;40.64
47080;BME280;33067;49.296;14.470;2023-06-26T00:10:10;97071.87;;;21.34;40.85
47080;BME280;33067;49.296;14.470;2023-06-26T00:12:35;97075.55;;;20.90;41.63
47080;BME280;33067;49.296;14.470;2023-06-26T00:15:00;97074.70;;;20.95;41.43
47080;BME280;33067;49.296;14.470;2023-06-26T00:17:25;97076.15;;;20.86;41.65
47080;BME280;33067;49.296;14.470;2023-06-26T00:19:50;97072.76;;;20.70;41.90
47080;BME280;33067;49.296;14.470;2023-06-26T00:22:16;97071.28;;;20.72;41.81
47080;BME280;33067;49.296;14.470;2023-06-26T00:24:41;97071.80;;;20.82;41.57
47080;BME280;33067;49.296;14.470;2023-06-26T00:27:07;97073.27;;;21.04;41.23
47080;BME280;33067;49.296;14.470;2023-06-26T00:29:32;97070.07;;;21.06;40.98
47080;BME280;33067;49.296;14.470;2023-06-26T00:31:57;97071.40;;;21.11;41.25
47080;BME280;33067;49.296;14.470;2023-06-26T00:34:22;97073.86;;;21.12;40.88
47080;BME280;33067;49.296;14.470;2023-06-26T00:36:47;97075.79;;;20.74;41.00
47080;BME280;33067;49.296;14.470;2023-06-26T00:39:12;97078.37;;;20.58;41.22
47080;BME280;33067;49.296;14.470;2023-06-26T00:41:38;97080.56;;;20.37;41.58
47080;BME280;33067;49.296;14.470;2023-06-26T00:44:04;97081.94;;;20.64;41.81
47080;BME280;33067;49.296;14.470;2023-06-26T00:46:29;97079.23;;;20.58;41.92
47080;BME280;33067;49.296;14.470;2023-06-26T00:48:54;97079.17;;;20.06;42.74
47080;BME280;33067;49.296;14.470;2023-06-26T00:51:19;97078.46;;;19.88;43.57
47080;BME280;33067;49.296;14.470;2023-06-26T00:53:44;97073.70;;;19.92;43.15
47080;BME280;33067;49.296;14.470;2023-06-26T00:56:09;97075.46;;;19.94;43.04
47080;BME280;33067;49.296;14.470;2023-06-26T00:58:35;97075.90;;;19.63;43.62
47080;BME280;33067;49.296;14.470;2023-06-26T01:01:00;97071.71;;;19.82;43.42
47080;BME280;33067;49.296;14.470;2023-06-26T01:03:26;97071.29;;;19.61;43.39
47080;BME280;33067;49.296;14.470;2023-06-26T01:05:52;97071.75;;;19.95;43.21
47080;BME280;33067;49.296;14.470;2023-06-26T01:08:16;97069.09;;;20.52;42.26
47080;BME280;33067;49.296;14.470;2023-06-26T01:10:42;97067.25;;;20.27;42.70
47080;BME280;33067;49.296;14.470;2023-06-26T01:13:07;97068.03;;;20.07;42.63
47080;BME280;33067;49.296;14.470;2023-06-26T01:15:32;97066.36;;;20.19;42.47
47080;BME280;33067;49.296;14.470;2023-06-26T01:17:59;97064.60;;;20.53;42.43
47080;BME280;33067;49.296;14.470;2023-06-26T01:20:23;97060.49;;;20.59;42.42
47080;BME280;33067;49.296;14.470;2023-06-26T01:22:56;97059.36;;;20.18;42.45
47080;BME280;33067;49.296;14.470;2023-06-26T01:25:22;97056.32;;;20.53;42.35
47080;BME280;33067;49.296;14.470;2023-06-26T01:27:40;97055.05;;;20.61;42.19
47080;BME280;33067;49.296;14.470;2023-06-26T01:30:06;97053.05;;;20.83;42.10
47080;BME280;33067;49.296;14.470;2023-06-26T01:32:30;97056.21;;;20.95;42.00
47080;BME280;33067;49.296;14.470;2023-06-26T01:34:56;97055.93;;;20.54;41.94
47080;BME280;33067;49.296;14.470;2023-06-26T01:37:21;97059.76;;;20.53;41.96
47080;BME280;33067;49.296;14.470;2023-06-26T01:39:46;97057.65;;;20.41;42.20
47080;BME280;33067;49.296;14.470;2023-06-26T01:42:12;97054.32;;;20.42;42.12
47080;BME280;33067;49.296;14.470;2023-06-26T01:44:42;97051.27;;;21.02;41.98
47080;BME280;33067;49.296;14.470;2023-06-26T01:47:04;97046.36;;;20.80;42.36
47080;BME280;33067;49.296;14.470;2023-06-26T01:49:36;97040.86;;;20.22;42.37
47080;BME280;33067;49.296;14.470;2023-06-26T01:52:00;97038.71;;;20.50;42.66
47080;BME280;33067;49.296;14.470;2023-06-26T01:54:18;97040.08;;;20.28;43.02
47080;BME280;33067;49.296;14.470;2023-06-26T01:56:45;97039.54;;;19.73;43.50
47080;BME280;33067;49.296;14.470;2023-06-26T01:59:09;97036.53;;;20.26;43.46
47080;BME280;33067;49.296;14.470;2023-06-26T02:01:34;97039.97;;;19.97;43.27
47080;BME280;33067;49.296;14.470;2023-06-26T02:03:59;97038.16;;;20.40;42.99
47080;BME280;33067;49.296;14.470;2023-06-26T02:06:25;97038.52;;;20.42;42.98
47080;BME280;33067;49.296;14.470;2023-06-26T02:08:50;97036.68;;;20.31;43.01
47080;BME280;33067;49.296;14.470;2023-06-26T02:13:01;97036.78;;;20.37;42.62
47080;BME280;33067;49.296;14.470;2023-06-26T02:15:26;97037.62;;;20.09;42.56
47080;BME280;33067;49.296;14.470;2023-06-26T02:17:51;97038.66;;;20.23;42.48
47080;BME280;33067;49.296;14.470;2023-06-26T02:20:17;97037.15;;;19.85;42.80
47080;BME280;33067;49.296;14.470;2023-06-26T02:22:43;97036.95;;;20.72;41.99
47080;BME280;33067;49.296;14.470;2023-06-26T02:25:09;97039.85;;;20.31;41.91
47080;BME280;33067;49.296;14.470;2023-06-26T02:27:34;97041.19;;;20.63;41.78
47080;BME280;33067;49.296;14.470;2023-06-26T02:29:59;97041.52;;;20.37;41.73
47080;BME280;33067;49.296;14.470;2023-06-26T02:32:24;97043.68;;;20.45;41.65
47080;BME280;33067;49.296;14.470;2023-06-26T02:34:49;97044.64;;;20.49;41.83
47080;BME280;33067;49.296;14.470;2023-06-26T02:37:14;97041.83;;;20.44;42.47
47080;BME280;33067;49.296;14.470;2023-06-26T02:39:40;97041.87;;;20.31;42.94
47080;BME280;33067;49.296;14.470;2023-06-26T02:42:05;97038.52;;;20.01;43.41
47080;BME280;33067;49.296;14.470;2023-06-26T02:44:31;97039.40;;;19.77;43.93
47080;BME280;33067;49.296;14.470;2023-06-26T02:46:56;97040.49;;;19.70;44.10
47080;BME280;33067;49.296;14.470;2023-06-26T02:49:21;97037.36;;;19.79;43.99
47080;BME280;33067;49.296;14.470;2023-06-26T02:51:47;97034.32;;;20.04;43.52
47080;BME280;33067;49.296;14.470;2023-06-26T02:54:12;97030.44;;;20.01;43.52
47080;BME280;33067;49.296;14.470;2023-06-26T02:56:37;97028.25;;;20.09;43.38
47080;BME280;33067;49.296;14.470;2023-06-26T02:59:03;97029.26;;;19.94;43.68
47080;BME280;33067;49.296;14.470;2023-06-26T03:01:28;97029.35;;;20.20;43.64
47080;BME280;33067;49.296;14.470;2023-06-26T03:03:54;97028.79;;;19.80;43.85
47080;BME280;33067;49.296;14.470;2023-06-26T03:06:19;97031.87;;;19.56;43.96
47080;BME280;33067;49.296;14.470;2023-06-26T03:08:45;97031.06;;;20.06;43.93
47080;BME280;33067;49.296;14.470;2023-06-26T03:11:10;97032.27;;;20.23;43.71
47080;BME280;33067;49.296;14.470;2023-06-26T03:13:36;97034.10;;;19.92;43.92
47080;BME280;33067;49.296;14.470;2023-06-26T03:16:01;97032.52;;;20.05;43.31
47080;BME280;33067;49.296;14.470;2023-06-26T03:18:27;97030.84;;;20.30;43.22
47080;BME280;33067;49.296;14.470;2023-06-26T03:20:52;97029.65;;;20.67;42.56
47080;BME280;33067;49.296;14.470;2023-06-26T03:23:18;97034.04;;;20.23;43.10
47080;BME280;33067;49.296;14.470;2023-06-26T03:25:43;97036.02;;;19.96;43.47
47080;BME280;33067;49.296;14.470;2023-06-26T03:28:09;97034.47;;;19.96;43.54
47080;BME280;33067;49.296;14.470;2023-06-26T03:30:34;97032.82;;;20.08;43.30
47080;BME280;33067;49.296;14.470;2023-06-26T03:32:59;97031.57;;;20.14;43.19
47080;BME280;33067;49.296;14.470;2023-06-26T03:35:25;97033.61;;;20.17;42.76
47080;BME280;33067;49.296;14.470;2023-06-26T03:37:50;97034.66;;;20.68;42.20
47080;BME280;33067;49.296;14.470;2023-06-26T03:40:15;97034.42;;;20.59;42.35
47080;BME280;33067;49.296;14.470;2023-06-26T03:42:42;97036.44;;;20.67;42.24
47080;BME280;33067;49.296;14.470;2023-06-26T03:45:06;97038.23;;;20.72;42.22
47080;BME280;33067;49.296;14.470;2023-06-26T03:47:30;97042.77;;;20.74;42.11
47080;BME280;33067;49.296;14.470;2023-06-26T03:49:55;97043.60;;;20.82;41.92
47080;BME280;33067;49.296;14.470;2023-06-26T03:52:21;97044.58;;;20.58;42.36
47080;BME280;33067;49.296;14.470;2023-06-26T03:54:47;97046.59;;;20.30;42.54
47080;BME280;33067;49.296;14.470;2023-06-26T03:57:12;97044.83;;;20.82;42.15
47080;BME280;33067;49.296;14.470;2023-06-26T03:59:38;97047.77;;;20.68;42.07
47080;BME280;33067;49.296;14.470;2023-06-26T04:02:03;97053.71;;;20.64;41.88
47080;BME280;33067;49.296;14.470;2023-06-26T04:04:28;97057.70;;;20.56;41.75
47080;BME280;33067;49.296;14.470;2023-06-26T04:06:54;97061.87;;;20.67;41.62
47080;BME280;33067;49.296;14.470;2023-06-26T04:09:19;97061.26;;;20.78;41.50
47080;BME280;33067;49.296;14.470;2023-06-26T04:11:44;97059.50;;;20.85;41.26
47080;BME280;33067;49.296;14.470;2023-06-26T04:14:09;97054.13;;;20.95;40.81
47080;BME280;33067;49.296;14.470;2023-06-26T04:16:35;97053.28;;;21.38;40.17
47080;BME280;33067;49.296;14.470;2023-06-26T04:19:00;97054.45;;;21.74;40.05
47080;BME280;33067;49.296;14.470;2023-06-26T04:21:25;97052.24;;;21.73;40.01
47080;BME280;33067;49.296;14.470;2023-06-26T04:23:51;97050.92;;;21.73;40.00
47080;BME280;33067;49.296;14.470;2023-06-26T04:26:17;97052.62;;;21.48;40.52
47080;BME280;33067;49.296;14.470;2023-06-26T04:28:42;97053.54;;;21.67;40.28
47080;BME280;33067;49.296;14.470;2023-06-26T04:31:07;97054.66;;;21.56;40.58
47080;BME280;33067;49.296;14.470;2023-06-26T04:33:32;97055.21;;;21.54;40.67
47080;BME280;33067;49.296;14.470;2023-06-26T04:35:57;97053.94;;;21.71;40.08
47080;BME280;33067;49.296;14.470;2023-06-26T04:38:22;97049.71;;;21.77;40.16
47080;BME280;33067;49.296;14.470;2023-06-26T04:40:48;97049.74;;;21.22;40.99
47080;BME280;33067;49.296;14.470;2023-06-26T04:43:13;97050.71;;;20.58;41.91
47080;BME280;33067;49.296;14.470;2023-06-26T04:45:39;97044.25;;;20.95;41.92
47080;BME280;33067;49.296;14.470;2023-06-26T04:48:04;97041.18;;;20.85;41.80
47080;BME280;33067;49.296;14.470;2023-06-26T04:50:30;97039.59;;;21.42;41.46
47080;BME280;33067;49.296;14.470;2023-06-26T04:52:54;97039.34;;;21.43;41.54
47080;BME280;33067;49.296;14.470;2023-06-26T04:55:20;97039.08;;;21.41;41.52
47080;BME280;33067;49.296;14.470;2023-06-26T04:57:45;97043.38;;;21.55;41.32
47080;BME280;33067;49.296;14.470;2023-06-26T05:00:12;97042.19;;;21.73;41.12
47080;BME280;33067;49.296;14.470;2023-06-26T05:02:36;97040.04;;;21.67;40.89
47080;BME280;33067;49.296;14.470;2023-06-26T05:05:01;97040.54;;;21.73;41.09
47080;BME280;33067;49.296;14.470;2023-06-26T05:07:26;97038.49;;;21.59;41.71
47080;BME280;33067;49.296;14.470;2023-06-26T05:09:51;97039.28;;;21.46;41.64
47080;BME280;33067;49.296;14.470;2023-06-26T05:12:17;97040.26;;;21.40;42.14
47080;BME280;33067;49.296;14.470;2023-06-26T05:14:42;97036.95;;;21.68;41.32
47080;BME280;33067;49.296;14.470;2023-06-26T05:17:08;97035.61;;;21.89;41.21
47080;BME280;33067;49.296;14.470;2023-06-26T05:19:33;97037.36;;;21.82;41.43
47080;BME280;33067;49.296;14.470;2023-06-26T05:21:59;97037.25;;;21.75;41.73
47080;BME280;33067;49.296;14.470;2023-06-26T05:24:25;97030.19;;;21.82;41.77
47080;BME280;33067;49.296;14.470;2023-06-26T05:26:50;97027.44;;;21.72;42.12
47080;BME280;33067;49.296;14.470;2023-06-26T05:29:15;97026.97;;;21.41;42.69
47080;BME280;33067;49.296;14.470;2023-06-26T05:31:41;97027.87;;;21.66;42.60
47080;BME280;33067;49.296;14.470;2023-06-26T05:34:07;97028.90;;;21.67;42.71
47080;BME280;33067;49.296;14.470;2023-06-26T05:36:33;97023.54;;;21.80;42.52
47080;BME280;33067;49.296;14.470;2023-06-26T05:38:57;97022.26;;;21.89;42.60
47080;BME280;33067;49.296;14.470;2023-06-26T05:41:22;97029.21;;;21.45;43.19
47080;BME280;33067;49.296;14.470;2023-06-26T05:43:47;97030.93;;;21.77;42.94
47080;BME280;33067;49.296;14.470;2023-06-26T05:46:13;97035.15;;;21.94;43.04
47080;BME280;33067;49.296;14.470;2023-06-26T05:48:38;97032.23;;;21.66;43.32
47080;BME280;33067;49.296;14.470;2023-06-26T05:51:04;97033.69;;;22.13;43.02
47080;BME280;33067;49.296;14.470;2023-06-26T05:53:30;97032.46;;;21.89;42.98
47080;BME280;33067;49.296;14.470;2023-06-26T05:55:56;97028.12;;;21.85;42.85
47080;BME280;33067;49.296;14.470;2023-06-26T05:58:21;97027.35;;;22.15;42.83
47080;BME280;33067;49.296;14.470;2023-06-26T06:00:46;97025.51;;;22.32;42.40
47080;BME280;33067;49.296;14.470;2023-06-26T06:03:11;97025.55;;;22.08;43.46
47080;BME280;33067;49.296;14.470;2023-06-26T06:05:36;97022.29;;;21.95;43.47
47080;BME280;33067;49.296;14.470;2023-06-26T06:08:03;97021.57;;;22.19;43.54
47080;BME280;33067;49.296;14.470;2023-06-26T06:10:28;97025.36;;;22.51;43.19
47080;BME280;33067;49.296;14.470;2023-06-26T06:12:53;97030.33;;;22.18;43.12
47080;BME280;33067;49.296;14.470;2023-06-26T06:15:18;97028.83;;;22.19;43.37
47080;BME280;33067;49.296;14.470;2023-06-26T06:17:44;97034.22;;;22.55;43.17
47080;BME280;33067;49.296;14.470;2023-06-26T06:20:10;97033.62;;;22.87;42.85
47080;BME280;33067;49.296;14.470;2023-06-26T06:22:35;97030.95;;;23.44;41.04
47080;BME280;33067;49.296;14.470;2023-06-26T06:25:00;97031.54;;;23.53;40.86
47080;BME280;33067;49.296;14.470;2023-06-26T06:27:26;97028.39;;;23.44;40.74
47080;BME280;33067;49.296;14.470;2023-06-26T06:29:51;97025.75;;;24.02;40.05
47080;BME280;33067;49.296;14.470;2023-06-26T06:32:16;97024.20;;;24.22;39.91
47080;BME280;33067;49.296;14.470;2023-06-26T06:34:42;97024.47;;;24.23;40.41
47080;BME280;33067;49.296;14.470;2023-06-26T06:37:07;97023.61;;;24.66;39.13
47080;BME280;33067;49.296;14.470;2023-06-26T06:39:32;97022.27;;;25.13;38.52
47080;BME280;33067;49.296;14.470;2023-06-26T06:41:58;97022.22;;;25.27;38.32
47080;BME280;33067;49.296;14.470;2023-06-26T06:44:23;97022.56;;;25.05;37.68
47080;BME280;33067;49.296;14.470;2023-06-26T06:46:49;97018.22;;;24.96;37.65
47080;BME280;33067;49.296;14.470;2023-06-26T06:49:14;97018.86;;;24.92;37.84
47080;BME280;33067;49.296;14.470;2023-06-26T06:51:39;97021.37;;;25.35;37.62
47080;BME280;33067;49.296;14.470;2023-06-26T06:54:05;97020.65;;;25.29;37.44
47080;BME280;33067;49.296;14.470;2023-06-26T06:56:30;97018.46;;;24.89;37.32
47080;BME280;33067;49.296;14.470;2023-06-26T06:58:55;97015.78;;;25.09;37.68
47080;BME280;33067;49.296;14.470;2023-06-26T07:01:21;97012.36;;;25.65;37.06
47080;BME280;33067;49.296;14.470;2023-06-26T07:03:46;97016.92;;;25.18;37.29
47080;BME280;33067;49.296;14.470;2023-06-26T07:06:12;97010.45;;;25.29;36.56
47080;BME280;33067;49.296;14.470;2023-06-26T07:08:37;97010.23;;;25.88;36.25
47080;BME280;33067;49.296;14.470;2023-06-26T07:11:02;97003.63;;;26.05;34.84
47080;BME280;33067;49.296;14.470;2023-06-26T07:13:27;97004.24;;;26.28;34.92
47080;BME280;33067;49.296;14.470;2023-06-26T07:15:53;97004.95;;;26.53;34.32
47080;BME280;33067;49.296;14.470;2023-06-26T07:18:18;97006.99;;;26.83;34.05
47080;BME280;33067;49.296;14.470;2023-06-26T07:20:44;97007.69;;;27.00;33.98
47080;BME280;33067;49.296;14.470;2023-06-26T07:23:09;97006.44;;;26.91;34.14
47080;BME280;33067;49.296;14.470;2023-06-26T07:25:34;97005.91;;;27.75;33.08
47080;BME280;33067;49.296;14.470;2023-06-26T07:27:59;97002.09;;;27.64;32.90
47080;BME280;33067;49.296;14.470;2023-06-26T07:30:25;97004.26;;;27.47;33.07
47080;BME280;33067;49.296;14.470;2023-06-26T07:32:50;96999.37;;;27.79;33.08
47080;BME280;33067;49.296;14.470;2023-06-26T07:35:16;96997.13;;;27.73;33.29
47080;BME280;33067;49.296;14.470;2023-06-26T07:37:42;96994.24;;;27.86;32.73
47080;BME280;33067;49.296;14.470;2023-06-26T07:40:09;96993.55;;;28.05;32.35
47080;BME280;33067;49.296;14.470;2023-06-26T07:42:33;96992.19;;;28.18;31.76
47080;BME280;33067;49.296;14.470;2023-06-26T07:44:58;96990.48;;;28.67;31.42
47080;BME280;33067;49.296;14.470;2023-06-26T07:47:24;96994.14;;;28.39;31.77
47080;BME280;33067;49.296;14.470;2023-06-26T07:49:49;96989.11;;;27.95;31.65
47080;BME280;33067;49.296;14.470;2023-06-26T07:52:15;96983.97;;;28.36;31.78
47080;BME280;33067;49.296;14.470;2023-06-26T07:54:40;96981.75;;;28.84;31.23
47080;BME280;33067;49.296;14.470;2023-06-26T07:57:06;96980.05;;;29.07;30.71
47080;BME280;33067;49.296;14.470;2023-06-26T07:59:31;96980.82;;;29.11;30.85
47080;BME280;33067;49.296;14.470;2023-06-26T08:01:57;96978.95;;;29.64;30.44
47080;BME280;33067;49.296;14.470;2023-06-26T08:04:22;96980.90;;;29.39;30.42
47080;BME280;33067;49.296;14.470;2023-06-26T08:06:48;96978.88;;;29.57;30.06
47080;BME280;33067;49.296;14.470;2023-06-26T08:09:12;96975.32;;;30.21;28.74
47080;BME280;33067;49.296;14.470;2023-06-26T08:11:38;96971.39;;;30.09;29.24
47080;BME280;33067;49.296;14.470;2023-06-26T08:14:03;96972.30;;;30.47;28.97
47080;BME280;33067;49.296;14.470;2023-06-26T08:16:28;96967.42;;;30.72;28.69
47080;BME280;33067;49.296;14.470;2023-06-26T08:18:54;96971.13;;;30.20;28.73
47080;BME280;33067;49.296;14.470;2023-06-26T08:21:20;96968.64;;;30.83;28.19
47080;BME280;33067;49.296;14.470;2023-06-26T08:23:45;96968.91;;;31.16;27.06
47080;BME280;33067;49.296;14.470;2023-06-26T08:26:10;96964.98;;;31.49;26.86
47080;BME280;33067;49.296;14.470;2023-06-26T08:28:36;96961.73;;;31.32;26.86
47080;BME280;33067;49.296;14.470;2023-06-26T08:31:01;96963.15;;;31.44;26.04
47080;BME280;33067;49.296;14.470;2023-06-26T08:33:26;96962.66;;;31.43;26.54
47080;BME280;33067;49.296;14.470;2023-06-26T08:35:52;96963.78;;;31.67;26.29
47080;BME280;33067;49.296;14.470;2023-06-26T08:38:17;96963.53;;;31.61;25.77
47080;BME280;33067;49.296;14.470;2023-06-26T08:40:43;96962.32;;;31.58;25.25
47080;BME280;33067;49.296;14.470;2023-06-26T08:43:08;96960.84;;;31.93;24.39
47080;BME280;33067;49.296;14.470;2023-06-26T08:45:34;96959.72;;;32.10;24.29
47080;BME280;33067;49.296;14.470;2023-06-26T08:48:00;96959.93;;;31.78;24.77
47080;BME280;33067;49.296;14.470;2023-06-26T08:50:26;96955.40;;;32.19;24.46
47080;BME280;33067;49.296;14.470;2023-06-26T08:52:54;96952.52;;;31.92;23.74
47080;BME280;33067;49.296;14.470;2023-06-26T08:55:16;96953.13;;;31.64;23.99
47080;BME280;33067;49.296;14.470;2023-06-26T08:57:41;96954.92;;;32.06;23.88
47080;BME280;33067;49.296;14.470;2023-06-26T09:00:08;96954.40;;;31.91;24.01
47080;BME280;33067;49.296;14.470;2023-06-26T09:02:33;96954.52;;;32.41;23.65
47080;BME280;33067;49.296;14.470;2023-06-26T09:04:58;96952.66;;;32.10;23.34
47080;BME280;33067;49.296;14.470;2023-06-26T09:07:24;96949.88;;;32.29;22.80
47080;BME280;33067;49.296;14.470;2023-06-26T09:09:49;96949.60;;;32.43;22.99
47080;BME280;33067;49.296;14.470;2023-06-26T09:12:15;96947.45;;;31.75;23.51
47080;BME280;33067;49.296;14.470;2023-06-26T09:14:41;96945.26;;;32.30;23.46
47080;BME280;33067;49.296;14.470;2023-06-26T09:17:05;96943.16;;;32.38;23.61
47080;BME280;33067;49.296;14.470;2023-06-26T09:19:31;96940.76;;;32.61;24.09
47080;BME280;33067;49.296;14.470;2023-06-26T09:21:57;96940.23;;;32.44;23.16
47080;BME280;33067;49.296;14.470;2023-06-26T09:24:23;96935.65;;;31.98;24.17
47080;BME280;33067;49.296;14.470;2023-06-26T09:26:49;96934.87;;;32.24;24.02
47080;BME280;33067;49.296;14.470;2023-06-26T09:29:15;96934.07;;;32.31;23.74
47080;BME280;33067;49.296;14.470;2023-06-26T09:31:40;96932.40;;;32.42;23.18
47080;BME280;33067;49.296;14.470;2023-06-26T09:34:05;96929.07;;;32.40;23.84
47080;BME280;33067;49.296;14.470;2023-06-26T09:36:31;96927.58;;;32.53;23.94
47080;BME280;33067;49.296;14.470;2023-06-26T09:38:56;96923.85;;;32.58;23.47
47080;BME280;33067;49.296;14.470;2023-06-26T09:41:21;96918.04;;;33.02;23.01
47080;BME280;33067;49.296;14.470;2023-06-26T09:43:47;96917.81;;;33.06;23.08
47080;BME280;33067;49.296;14.470;2023-06-26T09:46:16;96913.67;;;33.21;22.84
47080;BME280;33067;49.296;14.470;2023-06-26T09:48:37;96913.36;;;33.66;22.72
47080;BME280;33067;49.296;14.470;2023-06-26T09:51:03;96910.73;;;33.31;22.30
47080;BME280;33067;49.296;14.470;2023-06-26T09:53:28;96908.01;;;33.56;22.01
47080;BME280;33067;49.296;14.470;2023-06-26T09:55:54;96904.50;;;33.01;21.99
47080;BME280;33067;49.296;14.470;2023-06-26T09:58:20;96903.63;;;32.95;22.02
47080;BME280;33067;49.296;14.470;2023-06-26T10:00:45;96902.02;;;33.63;21.15
47080;BME280;33067;49.296;14.470;2023-06-26T10:03:10;96896.64;;;33.57;20.85
47080;BME280;33067;49.296;14.470;2023-06-26T10:05:36;96893.25;;;33.84;20.56
47080;BME280;33067;49.296;14.470;2023-06-26T10:08:01;96888.50;;;33.91;20.64
47080;BME280;33067;49.296;14.470;2023-06-26T10:10:27;96881.12;;;33.95;20.21
47080;BME280;33067;49.296;14.470;2023-06-26T10:12:57;96879.06;;;33.71;20.90
47080;BME280;33067;49.296;14.470;2023-06-26T10:15:20;96877.36;;;33.83;20.64
47080;BME280;33067;49.296;14.470;2023-06-26T10:17:45;96876.96;;;34.16;20.42
47080;BME280;33067;49.296;14.470;2023-06-26T10:20:10;96877.53;;;33.96;20.77
47080;BME280;33067;49.296;14.470;2023-06-26T10:22:48;96877.15;;;34.15;20.57
47080;BME280;33067;49.296;14.470;2023-06-26T10:25:00;96871.19;;;34.07;20.23
47080;BME280;33067;49.296;14.470;2023-06-26T10:27:28;96871.05;;;34.09;20.90
47080;BME280;33067;49.296;14.470;2023-06-26T10:29:53;96870.23;;;33.65;20.78
47080;BME280;33067;49.296;14.470;2023-06-26T10:32:17;96863.63;;;33.66;21.43
47080;BME280;33067;49.296;14.470;2023-06-26T10:34:42;96861.13;;;33.71;20.94
47080;BME280;33067;49.296;14.470;2023-06-26T10:37:07;96857.36;;;33.51;20.87
47080;BME280;33067;49.296;14.470;2023-06-26T10:42:08;96854.88;;;33.13;21.65
47080;BME280;33067;49.296;14.470;2023-06-26T10:44:24;96852.26;;;33.71;21.65
47080;BME280;33067;49.296;14.470;2023-06-26T10:46:50;96850.49;;;34.06;20.86
47080;BME280;33067;49.296;14.470;2023-06-26T10:49:15;96854.13;;;34.03;20.68
47080;BME280;33067;49.296;14.470;2023-06-26T10:51:46;96849.30;;;33.50;20.35
47080;BME280;33067;49.296;14.470;2023-06-26T10:54:06;96845.00;;;34.05;20.08
47080;BME280;33067;49.296;14.470;2023-06-26T10:56:41;96843.55;;;33.83;20.16
47080;BME280;33067;49.296;14.470;2023-06-26T11:01:24;96847.45;;;33.61;20.16
47080;BME280;33067;49.296;14.470;2023-06-26T11:04:03;96847.59;;;33.76;20.26
47080;BME280;33067;49.296;14.470;2023-06-26T11:06:15;96846.67;;;33.68;20.38
47080;BME280;33067;49.296;14.470;2023-06-26T11:08:44;96844.19;;;33.28;20.72
47080;BME280;33067;49.296;14.470;2023-06-26T11:11:04;96843.54;;;33.73;20.52
47080;BME280;33067;49.296;14.470;2023-06-26T11:13:30;96841.43;;;33.79;20.45
47080;BME280;33067;49.296;14.470;2023-06-26T11:15:55;96842.04;;;33.88;20.38
47080;BME280;33067;49.296;14.470;2023-06-26T11:18:21;96839.44;;;33.75;20.53
47080;BME280;33067;49.296;14.470;2023-06-26T11:20:46;96834.72;;;34.32;20.12
47080;BME280;33067;49.296;14.470;2023-06-26T11:23:12;96827.07;;;34.48;19.81
47080;BME280;33067;49.296;14.470;2023-06-26T11:25:38;96825.53;;;34.41;19.24
47080;BME280;33067;49.296;14.470;2023-06-26T11:28:04;96824.01;;;33.77;19.50
47080;BME280;33067;49.296;14.470;2023-06-26T11:30:28;96825.25;;;33.69;19.92
47080;BME280;33067;49.296;14.470;2023-06-26T11:33:02;96825.23;;;33.73;19.89
47080;BME280;33067;49.296;14.470;2023-06-26T11:35:22;96817.41;;;34.06;19.48
47080;BME280;33067;49.296;14.470;2023-06-26T11:37:44;96815.55;;;34.06;19.76
47080;BME280;33067;49.296;14.470;2023-06-26T11:40:17;96811.74;;;34.07;19.69
47080;BME280;33067;49.296;14.470;2023-06-26T11:42:35;96812.37;;;33.63;19.50
47080;BME280;33067;49.296;14.470;2023-06-26T11:45:01;96804.34;;;34.06;19.86
47080;BME280;33067;49.296;14.470;2023-06-26T11:47:26;96803.83;;;33.97;19.39
47080;BME280;33067;49.296;14.470;2023-06-26T11:49:52;96803.41;;;34.33;19.55
47080;BME280;33067;49.296;14.470;2023-06-26T11:52:17;96801.39;;;34.28;19.58
47080;BME280;33067;49.296;14.470;2023-06-26T11:54:44;96800.77;;;34.55;19.22
47080;BME280;33067;49.296;14.470;2023-06-26T11:57:14;96797.81;;;34.82;19.15
47080;BME280;33067;49.296;14.470;2023-06-26T11:59:35;96798.45;;;34.83;18.87
47080;BME280;33067;49.296;14.470;2023-06-26T12:02:00;96792.90;;;34.39;18.80
47080;BME280;33067;49.296;14.470;2023-06-26T12:04:25;96796.27;;;34.74;19.18
47080;BME280;33067;49.296;14.470;2023-06-26T12:06:52;96794.01;;;34.93;18.87
47080;BME280;33067;49.296;14.470;2023-06-26T12:09:18;96791.79;;;35.10;18.69
47080;BME280;33067;49.296;14.470;2023-06-26T12:11:43;96791.43;;;34.73;18.73
47080;BME280;33067;49.296;14.470;2023-06-26T12:14:07;96790.72;;;34.57;18.85
47080;BME280;33067;49.296;14.470;2023-06-26T12:16:33;96796.23;;;34.90;18.74
47080;BME280;33067;49.296;14.470;2023-06-26T12:18:59;96790.78;;;34.64;18.64
47080;BME280;33067;49.296;14.470;2023-06-26T12:21:33;96786.60;;;34.76;18.51
47080;BME280;33067;49.296;14.470;2023-06-26T12:23:48;96790.74;;;34.70;19.00
47080;BME280;33067;49.296;14.470;2023-06-26T12:26:17;96784.58;;;34.61;19.10
47080;BME280;33067;49.296;14.470;2023-06-26T12:28:39;96782.03;;;34.94;18.50
47080;BME280;33067;49.296;14.470;2023-06-26T12:31:14;96783.07;;;35.04;18.47
47080;BME280;33067;49.296;14.470;2023-06-26T12:33:30;96782.36;;;34.62;18.68
47080;BME280;33067;49.296;14.470;2023-06-26T12:35:56;96778.16;;;34.78;18.71
47080;BME280;33067;49.296;14.470;2023-06-26T12:38:22;96774.83;;;34.70;18.75
47080;BME280;33067;49.296;14.470;2023-06-26T12:40:47;96768.04;;;34.28;19.10
47080;BME280;33067;49.296;14.470;2023-06-26T12:45:38;96774.22;;;34.88;18.70
47080;BME280;33067;49.296;14.470;2023-06-26T12:48:08;96766.47;;;34.75;18.81